Terminal Aerodrome Forecast
Issued by NWS

Home | Current Version | Previous Version | Graphics & Text | Print | Product List | Glossary On
Versions: 1 2 3 4 5 6 7 8 9 10 11 12 13 14 15 16 17 18 19
306
FTUS43 KMPX 102320
TAFRWF
TAF
KRWF 102320Z 1100/1124 33004KT P6SM OVC080
     FM111200 20006KT P6SM BKN050 OVC100=

USA.gov is the U.S. government's official web portal to all federal, state and local government web resources and services.